createdAt,value
2023-04-04T00:02:46.385Z,35.25
2023-04-04T00:07:50.781Z,35.45
2023-04-04T00:12:53.807Z,34.67
2023-04-04T00:17:57.314Z,35.75
2023-04-04T00:23:01.608Z,35.28
2023-04-04T00:28:04.636Z,34.10
2023-04-04T00:33:08.121Z,35.03
2023-04-04T00:38:12.821Z,34.70
2023-04-04T00:43:16.993Z,34.08
2023-04-04T00:48:21.308Z,34.57
2023-04-04T00:53:26.008Z,34.08
2023-04-04T00:58:29.016Z,34.70
2023-04-04T01:03:32.149Z,33.70
2023-04-04T01:08:38.857Z,33.80
2023-04-04T01:13:43.359Z,33.37
2023-04-04T01:18:50.951Z,33.60
2023-04-04T01:24:01.274Z,33.97
2023-04-04T01:29:31.022Z,33.87
2023-04-04T01:34:45.576Z,34.17
2023-04-04T01:39:54.413Z,34.13
2023-04-04T01:44:59.040Z,34.33
2023-04-04T01:50:10.428Z,34.47
2023-04-04T01:55:13.490Z,33.17
2023-04-04T02:00:18.630Z,34.55
2023-04-04T02:05:21.475Z,35.33
2023-04-04T02:10:24.342Z,34.73
2023-04-04T02:15:29.119Z,34.10
2023-04-04T02:20:32.616Z,34.10
2023-04-04T02:25:35.556Z,34.13
2023-04-04T02:30:39.895Z,33.92
2023-04-04T02:35:42.997Z,34.13
2023-04-04T02:40:46.842Z,34.70
2023-04-04T02:45:51.712Z,34.67
2023-04-04T02:50:58.680Z,34.07
2023-04-04T02:56:03.688Z,34.13
2023-04-04T03:01:08.576Z,34.60
2023-04-04T03:06:14.868Z,34.47
2023-04-04T03:11:21.089Z,34.03
2023-04-04T03:16:27.125Z,34.43
2023-04-04T03:21:30.243Z,34.20
2023-04-04T03:26:34.852Z,34.43
2023-04-04T03:31:41.740Z,34.40
2023-04-04T03:36:46.642Z,39.43
2023-04-04T03:41:49.498Z,35.80
2023-04-04T03:46:54.312Z,34.63
2023-04-04T03:51:58.985Z,36.40
2023-04-04T03:57:02.088Z,33.97
2023-04-04T04:02:06.873Z,34.63
2023-04-04T04:07:09.867Z,34.07
2023-04-04T04:12:12.731Z,33.80
2023-04-04T04:17:19.714Z,33.27
2023-04-04T04:22:24.190Z,34.30
2023-04-04T04:27:27.332Z,33.83
2023-04-04T04:32:32.536Z,34.13
2023-04-04T04:37:35.628Z,33.27
2023-04-04T04:42:45.945Z,33.93
2023-04-04T04:47:53.207Z,35.10
2023-04-04T04:52:57.389Z,33.60
2023-04-04T04:58:01.225Z,33.67
2023-04-04T05:03:07.626Z,33.63
2023-04-04T05:08:15.728Z,33.97
2023-04-04T05:13:29.195Z,33.47
2023-04-04T05:18:33.711Z,33.80
2023-04-04T05:23:36.793Z,34.90
2023-04-04T05:28:40.735Z,35.00
2023-04-04T05:33:45.590Z,34.70
2023-04-04T05:39:05.827Z,34.63
2023-04-04T05:44:12.553Z,34.23
2023-04-04T05:49:16.973Z,34.40
2023-04-04T05:54:29.729Z,35.57
2023-04-04T05:59:35.006Z,36.03
2023-04-04T06:04:41.915Z,34.87
2023-04-04T06:09:46.988Z,35.87
2023-04-04T06:14:49.937Z,34.40
2023-04-04T06:19:57.886Z,33.90
2023-04-04T06:25:00.859Z,38.10
2023-04-04T06:30:06.276Z,36.03
2023-04-04T06:35:11.173Z,34.17
2023-04-04T06:40:19.416Z,36.53
2023-04-04T06:45:23.598Z,34.87
2023-04-04T06:50:30.896Z,35.13
2023-04-04T06:55:34.585Z,35.00
2023-04-04T07:00:37.975Z,35.70
2023-04-04T07:05:42.605Z,34.83
2023-04-04T07:10:45.819Z,35.70
2023-04-04T07:15:50.121Z,34.13
2023-04-04T07:20:54.907Z,34.97
2023-04-04T07:25:57.852Z,34.97
2023-04-04T07:31:01.791Z,34.93
2023-04-04T07:36:06.466Z,35.10
2023-04-04T07:41:09.805Z,36.70
2023-04-04T07:46:12.759Z,35.60
2023-04-04T07:51:17.312Z,36.60
2023-04-04T07:56:21.650Z,35.27
2023-04-04T08:01:24.482Z,35.13
2023-04-04T08:06:28.676Z,35.40
2023-04-04T08:11:31.545Z,35.60
2023-04-04T08:16:34.652Z,34.93
2023-04-04T08:21:38.836Z,35.77
2023-04-04T08:26:43.579Z,35.03
2023-04-04T08:31:48.321Z,36.00
2023-04-04T08:36:52.954Z,35.85
2023-04-04T08:42:03.216Z,35.58
2023-04-04T08:47:09.114Z,35.08
2023-04-04T08:52:15.940Z,35.35
2023-04-04T08:57:27.365Z,36.45
2023-04-04T09:02:35.190Z,35.95
2023-04-04T09:07:40.026Z,36.67
2023-04-04T09:12:45.131Z,35.58
2023-04-04T09:17:49.019Z,38.70
2023-04-04T09:22:53.350Z,35.33
2023-04-04T09:27:57.923Z,35.70
2023-04-04T09:33:06.162Z,36.35
2023-04-04T09:38:10.524Z,36.10
2023-04-04T09:43:13.813Z,35.88
2023-04-04T09:48:27.202Z,35.80
2023-04-04T09:53:31.652Z,36.35
2023-04-04T09:58:36.193Z,36.63
2023-04-04T10:03:39.927Z,37.45
2023-04-04T10:08:45.760Z,36.58
2023-04-04T10:13:53.247Z,35.92
2023-04-04T10:18:57.148Z,36.03
2023-04-04T10:24:08.867Z,36.58
2023-04-04T10:29:11.833Z,36.35
2023-04-04T10:34:26.188Z,36.67
2023-04-04T10:39:34.262Z,36.75
2023-04-04T10:44:39.995Z,41.67
2023-04-04T10:49:45.714Z,37.20
2023-04-04T10:54:52.267Z,37.70
2023-04-04T10:59:59.132Z,37.35
2023-04-04T11:05:12.324Z,37.40
2023-04-04T11:10:21.942Z,37.80
2023-04-04T11:15:26.242Z,37.08
2023-04-04T11:20:34.586Z,39.38
2023-04-04T11:25:42.809Z,37.30
2023-04-04T11:30:48.838Z,38.72
2023-04-04T11:35:51.884Z,39.45
2023-04-04T11:40:56.714Z,37.30
2023-04-04T11:46:08.808Z,37.22
2023-04-04T11:51:12.766Z,37.78
2023-04-04T11:56:18.169Z,36.90
2023-04-04T12:01:21.690Z,36.55
2023-04-04T12:06:25.401Z,37.15
2023-04-04T12:11:32.108Z,36.60
2023-04-04T12:16:37.177Z,36.92
2023-04-04T12:21:40.553Z,38.47
2023-04-04T12:26:46.987Z,37.30
2023-04-04T12:31:51.203Z,36.97
2023-04-04T12:36:54.255Z,36.35
2023-04-04T12:41:59.930Z,37.40
2023-04-04T12:47:05.144Z,37.53
2023-04-04T12:52:17.052Z,37.85
2023-04-04T12:57:23.293Z,36.80
2023-04-04T13:02:29.460Z,39.83
2023-04-04T13:07:34.879Z,37.40
2023-04-04T13:12:59.572Z,37.72
2023-04-04T13:18:15.920Z,37.13
2023-04-04T13:23:19.256Z,36.97
2023-04-04T13:28:23.480Z,37.13
2023-04-04T13:33:26.357Z,38.25
2023-04-04T13:38:30.294Z,37.20
2023-04-04T13:43:34.553Z,39.83
2023-04-04T13:48:37.404Z,39.65
2023-04-04T13:53:41.445Z,38.40
2023-04-04T13:58:46.327Z,38.10
2023-04-04T14:03:49.307Z,37.80
2023-04-04T14:08:52.169Z,38.25
2023-04-04T14:13:56.352Z,39.78
2023-04-04T14:18:59.192Z,37.95
2023-04-04T14:24:02.033Z,38.35
2023-04-04T14:29:06.909Z,38.53
2023-04-04T14:34:10.354Z,37.85
2023-04-04T14:39:14.022Z,39.53
2023-04-04T14:44:18.437Z,38.67
2023-04-04T14:49:31.574Z,38.60
2023-04-04T14:54:34.508Z,39.50
2023-04-04T14:59:39.700Z,38.72
2023-04-04T15:04:42.860Z,38.40
2023-04-04T15:09:46.047Z,39.55
2023-04-04T15:14:50.346Z,38.45
2023-04-04T15:19:53.256Z,37.90
2023-04-04T15:24:56.479Z,37.35
2023-04-04T15:30:00.806Z,37.90
2023-04-04T15:35:04.524Z,38.88
2023-04-04T15:40:08.449Z,39.08
2023-04-04T15:45:14.066Z,38.75
2023-04-04T15:50:16.914Z,39.15
2023-04-04T15:55:21.654Z,38.53
2023-04-04T16:00:28.894Z,38.85
2023-04-04T16:05:34.846Z,40.28
2023-04-04T16:10:37.819Z,38.95
2023-04-04T16:15:42.435Z,37.88
2023-04-04T16:20:45.335Z,39.47
2023-04-04T16:25:48.194Z,38.15
2023-04-04T16:30:52.709Z,41.10
2023-04-04T16:35:56.467Z,39.30
2023-04-04T16:41:06.364Z,39.03
2023-04-04T16:46:10.740Z,39.05
2023-04-04T16:51:14.011Z,39.15
2023-04-04T16:56:17.053Z,38.60
2023-04-04T17:01:23.456Z,38.92
2023-04-04T17:06:27.399Z,38.67
2023-04-04T17:11:30.348Z,38.40
2023-04-04T17:16:34.659Z,37.58
2023-04-04T17:21:43.631Z,40.50
2023-04-04T17:26:48.094Z,38.78
2023-04-04T17:31:53.220Z,38.20
2023-04-04T17:36:56.806Z,40.17
2023-04-04T17:42:01.145Z,37.78
2023-04-04T17:47:05.900Z,40.15
2023-04-04T17:52:08.854Z,39.30
2023-04-04T17:57:11.857Z,39.92
2023-04-04T18:02:16.584Z,38.47
2023-04-04T18:07:19.988Z,39.60
2023-04-04T18:12:22.879Z,39.78
2023-04-04T18:17:28.280Z,39.33
2023-04-04T18:22:34.118Z,42.28
2023-04-04T18:27:37.481Z,39.05
2023-04-04T18:32:49.770Z,38.33
2023-04-04T18:37:52.758Z,40.65
2023-04-04T18:42:55.799Z,38.45
2023-04-04T18:48:00.007Z,37.92
2023-04-04T18:53:03.045Z,38.13
2023-04-04T18:58:05.923Z,40.00
2023-04-04T19:03:11.822Z,38.35
2023-04-04T19:08:17.235Z,38.20
2023-04-04T19:13:22.226Z,37.47
2023-04-04T19:18:26.436Z,37.38
2023-04-04T19:23:29.280Z,37.67
2023-04-04T19:28:32.185Z,45.42
2023-04-04T19:33:36.994Z,39.30
2023-04-04T19:38:42.292Z,39.30
2023-04-04T19:43:50.706Z,38.38
2023-04-04T19:48:55.737Z,39.42
2023-04-04T19:54:11.717Z,38.50
2023-04-04T19:59:48.146Z,39.17
2023-04-04T20:04:52.347Z,38.38
2023-04-04T20:09:56.143Z,38.72
2023-04-04T20:15:15.332Z,37.90
2023-04-04T20:20:51.167Z,37.42
2023-04-04T20:25:55.094Z,38.10
2023-04-04T20:31:01.788Z,37.63
2023-04-04T20:36:10.798Z,37.05
2023-04-04T20:41:18.127Z,39.90
2023-04-04T20:46:21.933Z,37.42
2023-04-04T20:51:30.891Z,37.33
2023-04-04T20:56:56.361Z,38.47
2023-04-04T21:02:11.353Z,37.50
2023-04-04T21:07:40.513Z,37.85
2023-04-04T21:12:43.371Z,37.47
2023-04-04T21:17:46.346Z,39.22
2023-04-04T21:22:51.886Z,37.92
2023-04-04T21:27:56.752Z,38.20
2023-04-04T21:32:59.640Z,38.22
2023-04-04T21:38:06.158Z,37.65
2023-04-04T21:43:09.005Z,38.10
2023-04-04T21:48:11.871Z,38.10
2023-04-04T21:53:17.344Z,37.17
2023-04-04T21:58:20.237Z,37.40
2023-04-04T22:03:23.140Z,37.92
2023-04-04T22:08:27.381Z,36.83
2023-04-04T22:13:33.057Z,38.83
2023-04-04T22:18:36.408Z,38.47
2023-04-04T22:23:40.847Z,38.53
2023-04-04T22:28:45.792Z,37.85
2023-04-04T22:33:48.937Z,38.17
2023-04-04T22:38:57.165Z,39.45
2023-04-04T22:44:00.620Z,38.95
2023-04-04T22:49:07.160Z,38.60
2023-04-04T22:54:12.946Z,37.67
2023-04-04T22:59:15.895Z,38.72
2023-04-04T23:04:18.853Z,36.92
2023-04-04T23:09:23.541Z,37.58
2023-04-04T23:14:30.585Z,38.22
2023-04-04T23:19:33.470Z,37.95
2023-04-04T23:24:37.743Z,38.35
2023-04-04T23:29:41.197Z,39.90
2023-04-04T23:34:44.031Z,37.45
2023-04-04T23:39:48.214Z,37.20
2023-04-04T23:44:51.286Z,38.10
2023-04-04T23:49:54.148Z,38.83
2023-04-04T23:54:58.341Z,38.25
